sensor_id;sensor_type;location;lat;lon;timestamp;P1;durP1;ratioP1;P2;durP2;ratioP2
57401;SDS011;43226;51.110;6.998;2023-02-15T00:01:21;29.27;;;15.33;;
57401;SDS011;43226;51.110;6.998;2023-02-15T00:03:49;28.07;;;15.00;;
57401;SDS011;43226;51.110;6.998;2023-02-15T00:06:14;22.63;;;12.80;;
57401;SDS011;43226;51.110;6.998;2023-02-15T00:08:40;26.33;;;14.70;;
57401;SDS011;43226;51.110;6.998;2023-02-15T00:13:30;29.47;;;14.70;;
57401;SDS011;43226;51.110;6.998;2023-02-15T00:16:00;32.87;;;15.63;;
57401;SDS011;43226;51.110;6.998;2023-02-15T00:18:25;27.03;;;15.33;;
57401;SDS011;43226;51.110;6.998;2023-02-15T00:20:50;30.43;;;14.70;;
57401;SDS011;43226;51.110;6.998;2023-02-15T00:23:15;27.63;;;14.80;;
57401;SDS011;43226;51.110;6.998;2023-02-15T00:25:40;34.53;;;15.27;;
57401;SDS011;43226;51.110;6.998;2023-02-15T00:28:05;33.07;;;14.77;;
57401;SDS011;43226;51.110;6.998;2023-02-15T00:30:31;29.85;;;14.18;;
57401;SDS011;43226;51.110;6.998;2023-02-15T00:32:56;32.83;;;15.83;;
57401;SDS011;43226;51.110;6.998;2023-02-15T00:35:21;33.00;;;15.50;;
57401;SDS011;43226;51.110;6.998;2023-02-15T00:37:46;32.87;;;15.90;;
57401;SDS011;43226;51.110;6.998;2023-02-15T00:40:11;31.53;;;14.57;;
57401;SDS011;43226;51.110;6.998;2023-02-15T00:42:36;29.50;;;14.90;;
57401;SDS011;43226;51.110;6.998;2023-02-15T00:45:02;29.70;;;14.50;;
57401;SDS011;43226;51.110;6.998;2023-02-15T00:47:27;34.83;;;15.73;;
57401;SDS011;43226;51.110;6.998;2023-02-15T00:49:52;28.10;;;13.40;;
57401;SDS011;43226;51.110;6.998;2023-02-15T00:52:17;31.50;;;15.80;;
57401;SDS011;43226;51.110;6.998;2023-02-15T00:54:42;32.10;;;15.87;;
57401;SDS011;43226;51.110;6.998;2023-02-15T00:57:07;32.97;;;15.10;;
57401;SDS011;43226;51.110;6.998;2023-02-15T00:59:33;27.97;;;14.60;;
57401;SDS011;43226;51.110;6.998;2023-02-15T01:01:59;32.20;;;16.13;;
57401;SDS011;43226;51.110;6.998;2023-02-15T01:04:24;27.87;;;13.93;;
57401;SDS011;43226;51.110;6.998;2023-02-15T01:06:49;34.27;;;17.80;;
57401;SDS011;43226;51.110;6.998;2023-02-15T01:09:14;31.10;;;15.57;;
57401;SDS011;43226;51.110;6.998;2023-02-15T01:11:39;29.87;;;14.83;;
57401;SDS011;43226;51.110;6.998;2023-02-15T01:14:04;30.50;;;14.70;;
57401;SDS011;43226;51.110;6.998;2023-02-15T01:16:30;32.17;;;15.03;;
57401;SDS011;43226;51.110;6.998;2023-02-15T01:18:55;30.43;;;15.90;;
57401;SDS011;43226;51.110;6.998;2023-02-15T01:21:22;33.33;;;16.50;;
57401;SDS011;43226;51.110;6.998;2023-02-15T01:23:47;31.23;;;14.87;;
57401;SDS011;43226;51.110;6.998;2023-02-15T01:26:13;30.93;;;14.97;;
57401;SDS011;43226;51.110;6.998;2023-02-15T01:28:38;30.43;;;15.40;;
57401;SDS011;43226;51.110;6.998;2023-02-15T01:31:10;37.87;;;15.93;;
57401;SDS011;43226;51.110;6.998;2023-02-15T01:33:36;25.47;;;14.50;;
57401;SDS011;43226;51.110;6.998;2023-02-15T01:36:01;32.37;;;15.33;;
57401;SDS011;43226;51.110;6.998;2023-02-15T01:38:26;29.67;;;16.10;;
57401;SDS011;43226;51.110;6.998;2023-02-15T01:40:52;34.40;;;15.67;;
57401;SDS011;43226;51.110;6.998;2023-02-15T01:43:17;31.60;;;15.80;;
57401;SDS011;43226;51.110;6.998;2023-02-15T01:45:43;29.93;;;14.60;;
57401;SDS011;43226;51.110;6.998;2023-02-15T01:50:43;31.33;;;15.10;;
57401;SDS011;43226;51.110;6.998;2023-02-15T01:55:57;33.60;;;16.07;;
57401;SDS011;43226;51.110;6.998;2023-02-15T01:58:24;28.20;;;15.20;;
57401;SDS011;43226;51.110;6.998;2023-02-15T02:00:50;31.90;;;16.90;;
57401;SDS011;43226;51.110;6.998;2023-02-15T02:03:15;28.50;;;14.30;;
57401;SDS011;43226;51.110;6.998;2023-02-15T02:05:40;27.40;;;14.87;;
57401;SDS011;43226;51.110;6.998;2023-02-15T02:08:06;29.27;;;15.20;;
57401;SDS011;43226;51.110;6.998;2023-02-15T02:10:31;35.93;;;14.80;;
57401;SDS011;43226;51.110;6.998;2023-02-15T02:12:58;39.10;;;17.73;;
57401;SDS011;43226;51.110;6.998;2023-02-15T02:15:29;31.93;;;16.30;;
57401;SDS011;43226;51.110;6.998;2023-02-15T02:18:20;33.10;;;15.67;;
57401;SDS011;43226;51.110;6.998;2023-02-15T02:23:38;29.47;;;14.87;;
57401;SDS011;43226;51.110;6.998;2023-02-15T02:36:20;25.70;;;14.43;;
57401;SDS011;43226;51.110;6.998;2023-02-15T02:44:18;27.93;;;14.87;;
57401;SDS011;43226;51.110;6.998;2023-02-15T02:46:52;31.33;;;15.67;;
57401;SDS011;43226;51.110;6.998;2023-02-15T02:49:35;31.20;;;15.77;;
57401;SDS011;43226;51.110;6.998;2023-02-15T02:54:44;33.10;;;15.77;;
57401;SDS011;43226;51.110;6.998;2023-02-15T02:57:09;34.07;;;15.77;;
57401;SDS011;43226;51.110;6.998;2023-02-15T02:59:38;33.43;;;17.37;;
57401;SDS011;43226;51.110;6.998;2023-02-15T03:02:11;35.20;;;14.90;;
57401;SDS011;43226;51.110;6.998;2023-02-15T03:04:39;29.37;;;15.80;;
57401;SDS011;43226;51.110;6.998;2023-02-15T03:07:08;36.33;;;17.10;;
57401;SDS011;43226;51.110;6.998;2023-02-15T03:09:38;33.30;;;15.07;;
57401;SDS011;43226;51.110;6.998;2023-02-15T03:12:10;43.33;;;16.00;;
57401;SDS011;43226;51.110;6.998;2023-02-15T03:14:36;28.77;;;15.40;;
57401;SDS011;43226;51.110;6.998;2023-02-15T03:17:01;32.90;;;16.77;;
57401;SDS011;43226;51.110;6.998;2023-02-15T03:19:28;32.53;;;16.03;;
57401;SDS011;43226;51.110;6.998;2023-02-15T03:21:56;33.80;;;17.10;;
57401;SDS011;43226;51.110;6.998;2023-02-15T03:24:29;30.77;;;15.17;;
57401;SDS011;43226;51.110;6.998;2023-02-15T03:26:56;39.20;;;15.93;;
57401;SDS011;43226;51.110;6.998;2023-02-15T03:29:23;34.17;;;16.73;;
57401;SDS011;43226;51.110;6.998;2023-02-15T03:31:50;26.40;;;14.70;;
57401;SDS011;43226;51.110;6.998;2023-02-15T03:34:18;32.50;;;15.90;;
57401;SDS011;43226;51.110;6.998;2023-02-15T03:36:44;37.40;;;16.13;;
57401;SDS011;43226;51.110;6.998;2023-02-15T03:41:38;39.10;;;16.60;;
57401;SDS011;43226;51.110;6.998;2023-02-15T03:44:10;41.00;;;19.20;;
57401;SDS011;43226;51.110;6.998;2023-02-15T03:46:49;39.50;;;19.47;;
57401;SDS011;43226;51.110;6.998;2023-02-15T03:49:18;39.40;;;18.03;;
57401;SDS011;43226;51.110;6.998;2023-02-15T03:51:46;34.87;;;17.30;;
57401;SDS011;43226;51.110;6.998;2023-02-15T03:54:14;29.50;;;16.03;;
57401;SDS011;43226;51.110;6.998;2023-02-15T03:57:00;31.90;;;15.83;;
57401;SDS011;43226;51.110;6.998;2023-02-15T03:59:44;37.53;;;15.47;;
57401;SDS011;43226;51.110;6.998;2023-02-15T04:02:29;33.97;;;15.53;;
57401;SDS011;43226;51.110;6.998;2023-02-15T04:04:58;34.10;;;15.37;;
57401;SDS011;43226;51.110;6.998;2023-02-15T04:07:23;35.37;;;15.70;;
57401;SDS011;43226;51.110;6.998;2023-02-15T04:09:48;31.23;;;16.40;;
57401;SDS011;43226;51.110;6.998;2023-02-15T04:12:32;38.80;;;16.23;;
57401;SDS011;43226;51.110;6.998;2023-02-15T04:14:57;32.00;;;15.67;;
57401;SDS011;43226;51.110;6.998;2023-02-15T04:17:41;33.37;;;15.37;;
57401;SDS011;43226;51.110;6.998;2023-02-15T04:20:07;35.70;;;14.90;;
57401;SDS011;43226;51.110;6.998;2023-02-15T04:22:51;33.90;;;15.07;;
57401;SDS011;43226;51.110;6.998;2023-02-15T04:25:35;27.53;;;14.77;;
57401;SDS011;43226;51.110;6.998;2023-02-15T04:28:00;30.23;;;15.57;;
57401;SDS011;43226;51.110;6.998;2023-02-15T04:30:26;30.40;;;15.50;;
57401;SDS011;43226;51.110;6.998;2023-02-15T04:32:51;35.47;;;16.30;;
57401;SDS011;43226;51.110;6.998;2023-02-15T04:35:16;31.53;;;15.33;;
57401;SDS011;43226;51.110;6.998;2023-02-15T04:37:42;32.07;;;15.90;;
57401;SDS011;43226;51.110;6.998;2023-02-15T04:40:08;33.50;;;16.20;;
57401;SDS011;43226;51.110;6.998;2023-02-15T04:42:34;32.23;;;16.30;;
57401;SDS011;43226;51.110;6.998;2023-02-15T04:44:59;38.20;;;17.13;;
57401;SDS011;43226;51.110;6.998;2023-02-15T04:47:24;37.63;;;17.80;;
57401;SDS011;43226;51.110;6.998;2023-02-15T04:49:50;31.97;;;15.10;;
57401;SDS011;43226;51.110;6.998;2023-02-15T04:52:15;37.97;;;16.27;;
57401;SDS011;43226;51.110;6.998;2023-02-15T04:54:42;33.87;;;15.93;;
57401;SDS011;43226;51.110;6.998;2023-02-15T04:57:07;31.83;;;15.77;;
57401;SDS011;43226;51.110;6.998;2023-02-15T04:59:32;31.90;;;16.00;;
57401;SDS011;43226;51.110;6.998;2023-02-15T05:01:57;32.23;;;16.00;;
57401;SDS011;43226;51.110;6.998;2023-02-15T05:04:22;33.70;;;16.00;;
57401;SDS011;43226;51.110;6.998;2023-02-15T05:06:48;27.00;;;14.40;;
57401;SDS011;43226;51.110;6.998;2023-02-15T05:09:14;35.30;;;14.40;;
57401;SDS011;43226;51.110;6.998;2023-02-15T05:11:39;31.97;;;14.43;;
57401;SDS011;43226;51.110;6.998;2023-02-15T05:14:05;40.80;;;16.80;;
57401;SDS011;43226;51.110;6.998;2023-02-15T05:16:30;52.93;;;25.77;;
57401;SDS011;43226;51.110;6.998;2023-02-15T05:18:55;51.43;;;26.13;;
57401;SDS011;43226;51.110;6.998;2023-02-15T05:21:21;49.27;;;24.27;;
57401;SDS011;43226;51.110;6.998;2023-02-15T05:23:46;36.93;;;17.27;;
57401;SDS011;43226;51.110;6.998;2023-02-15T05:26:12;36.40;;;18.17;;
57401;SDS011;43226;51.110;6.998;2023-02-15T05:28:55;34.00;;;16.37;;
57401;SDS011;43226;51.110;6.998;2023-02-15T05:31:21;36.23;;;18.27;;
57401;SDS011;43226;51.110;6.998;2023-02-15T05:33:46;31.17;;;16.20;;
57401;SDS011;43226;51.110;6.998;2023-02-15T05:36:11;31.10;;;14.77;;
57401;SDS011;43226;51.110;6.998;2023-02-15T05:38:37;28.90;;;14.03;;
57401;SDS011;43226;51.110;6.998;2023-02-15T05:41:03;29.30;;;15.40;;
57401;SDS011;43226;51.110;6.998;2023-02-15T05:43:29;31.23;;;15.07;;
57401;SDS011;43226;51.110;6.998;2023-02-15T05:45:54;29.13;;;14.17;;
57401;SDS011;43226;51.110;6.998;2023-02-15T05:48:20;34.07;;;14.80;;
57401;SDS011;43226;51.110;6.998;2023-02-15T05:50:45;30.50;;;14.37;;
57401;SDS011;43226;51.110;6.998;2023-02-15T05:53:11;41.53;;;15.70;;
57401;SDS011;43226;51.110;6.998;2023-02-15T05:55:39;34.90;;;17.70;;
57401;SDS011;43226;51.110;6.998;2023-02-15T05:58:05;25.27;;;13.93;;
57401;SDS011;43226;51.110;6.998;2023-02-15T06:00:31;32.63;;;15.83;;
57401;SDS011;43226;51.110;6.998;2023-02-15T06:02:56;33.67;;;15.10;;
57401;SDS011;43226;51.110;6.998;2023-02-15T06:05:21;28.73;;;14.57;;
57401;SDS011;43226;51.110;6.998;2023-02-15T06:07:46;30.17;;;13.67;;
57401;SDS011;43226;51.110;6.998;2023-02-15T06:10:11;24.80;;;14.13;;
57401;SDS011;43226;51.110;6.998;2023-02-15T06:12:37;32.13;;;16.70;;
57401;SDS011;43226;51.110;6.998;2023-02-15T06:15:02;38.77;;;18.80;;
57401;SDS011;43226;51.110;6.998;2023-02-15T06:17:27;35.53;;;16.00;;
57401;SDS011;43226;51.110;6.998;2023-02-15T06:19:53;33.73;;;16.10;;
57401;SDS011;43226;51.110;6.998;2023-02-15T06:22:18;38.23;;;14.50;;
57401;SDS011;43226;51.110;6.998;2023-02-15T06:24:43;28.10;;;14.23;;
57401;SDS011;43226;51.110;6.998;2023-02-15T06:27:09;27.77;;;13.80;;
57401;SDS011;43226;51.110;6.998;2023-02-15T06:29:34;30.60;;;13.10;;
57401;SDS011;43226;51.110;6.998;2023-02-15T06:31:59;27.57;;;13.37;;
57401;SDS011;43226;51.110;6.998;2023-02-15T06:34:25;29.60;;;15.40;;
57401;SDS011;43226;51.110;6.998;2023-02-15T06:36:50;29.70;;;14.53;;
57401;SDS011;43226;51.110;6.998;2023-02-15T06:39:15;27.93;;;14.00;;
57401;SDS011;43226;51.110;6.998;2023-02-15T06:41:40;35.30;;;14.83;;
57401;SDS011;43226;51.110;6.998;2023-02-15T06:44:06;28.20;;;14.43;;
57401;SDS011;43226;51.110;6.998;2023-02-15T06:46:31;27.93;;;13.60;;
57401;SDS011;43226;51.110;6.998;2023-02-15T06:48:56;25.07;;;12.30;;
57401;SDS011;43226;51.110;6.998;2023-02-15T06:51:21;33.77;;;14.57;;
57401;SDS011;43226;51.110;6.998;2023-02-15T06:53:46;31.87;;;15.00;;
57401;SDS011;43226;51.110;6.998;2023-02-15T06:56:11;30.27;;;14.43;;
57401;SDS011;43226;51.110;6.998;2023-02-15T06:58:38;29.73;;;14.87;;
57401;SDS011;43226;51.110;6.998;2023-02-15T07:01:03;26.40;;;14.13;;
57401;SDS011;43226;51.110;6.998;2023-02-15T07:03:29;35.40;;;16.23;;
57401;SDS011;43226;51.110;6.998;2023-02-15T07:05:54;34.87;;;15.37;;
57401;SDS011;43226;51.110;6.998;2023-02-15T07:08:20;32.20;;;14.40;;
57401;SDS011;43226;51.110;6.998;2023-02-15T07:10:46;25.47;;;13.90;;
57401;SDS011;43226;51.110;6.998;2023-02-15T07:13:11;27.73;;;14.97;;
57401;SDS011;43226;51.110;6.998;2023-02-15T07:15:36;26.53;;;13.50;;
57401;SDS011;43226;51.110;6.998;2023-02-15T07:18:01;28.90;;;14.97;;
57401;SDS011;43226;51.110;6.998;2023-02-15T07:20:26;27.63;;;13.60;;
57401;SDS011;43226;51.110;6.998;2023-02-15T07:22:51;28.70;;;14.60;;
57401;SDS011;43226;51.110;6.998;2023-02-15T07:25:17;22.93;;;12.73;;
57401;SDS011;43226;51.110;6.998;2023-02-15T07:27:43;25.60;;;13.37;;
57401;SDS011;43226;51.110;6.998;2023-02-15T07:30:10;27.57;;;13.07;;
57401;SDS011;43226;51.110;6.998;2023-02-15T07:32:36;24.03;;;13.20;;
57401;SDS011;43226;51.110;6.998;2023-02-15T07:35:01;18.90;;;10.93;;
57401;SDS011;43226;51.110;6.998;2023-02-15T07:37:26;20.80;;;12.50;;
57401;SDS011;43226;51.110;6.998;2023-02-15T07:39:52;22.23;;;11.80;;
57401;SDS011;43226;51.110;6.998;2023-02-15T07:42:17;24.03;;;13.07;;
57401;SDS011;43226;51.110;6.998;2023-02-15T07:44:44;21.27;;;12.60;;
57401;SDS011;43226;51.110;6.998;2023-02-15T07:47:10;21.90;;;13.20;;
57401;SDS011;43226;51.110;6.998;2023-02-15T07:49:35;20.10;;;13.10;;
57401;SDS011;43226;51.110;6.998;2023-02-15T07:52:00;20.77;;;12.80;;
57401;SDS011;43226;51.110;6.998;2023-02-15T07:54:26;19.47;;;12.20;;
57401;SDS011;43226;51.110;6.998;2023-02-15T07:56:51;20.20;;;12.40;;
57401;SDS011;43226;51.110;6.998;2023-02-15T07:59:16;19.23;;;12.60;;
57401;SDS011;43226;51.110;6.998;2023-02-15T08:01:41;22.73;;;12.67;;
57401;SDS011;43226;51.110;6.998;2023-02-15T08:04:07;20.00;;;12.17;;
57401;SDS011;43226;51.110;6.998;2023-02-15T08:06:35;23.27;;;10.90;;
57401;SDS011;43226;51.110;6.998;2023-02-15T08:09:02;23.83;;;13.63;;
57401;SDS011;43226;51.110;6.998;2023-02-15T08:11:28;21.17;;;13.10;;
57401;SDS011;43226;51.110;6.998;2023-02-15T08:14:19;18.00;;;12.20;;
57401;SDS011;43226;51.110;6.998;2023-02-15T08:16:49;17.80;;;11.37;;
57401;SDS011;43226;51.110;6.998;2023-02-15T08:19:16;18.50;;;12.23;;
57401;SDS011;43226;51.110;6.998;2023-02-15T08:21:42;20.23;;;13.67;;
57401;SDS011;43226;51.110;6.998;2023-02-15T08:24:08;20.73;;;12.20;;
57401;SDS011;43226;51.110;6.998;2023-02-15T08:26:34;21.60;;;11.40;;
57401;SDS011;43226;51.110;6.998;2023-02-15T08:29:00;15.63;;;11.40;;
57401;SDS011;43226;51.110;6.998;2023-02-15T08:31:26;18.53;;;12.17;;
57401;SDS011;43226;51.110;6.998;2023-02-15T08:33:52;26.37;;;14.33;;
57401;SDS011;43226;51.110;6.998;2023-02-15T08:36:18;18.97;;;12.17;;
57401;SDS011;43226;51.110;6.998;2023-02-15T08:38:43;19.80;;;12.70;;
57401;SDS011;43226;51.110;6.998;2023-02-15T08:41:10;16.20;;;10.80;;
57401;SDS011;43226;51.110;6.998;2023-02-15T08:43:35;23.10;;;12.77;;
57401;SDS011;43226;51.110;6.998;2023-02-15T08:46:00;17.93;;;12.20;;
57401;SDS011;43226;51.110;6.998;2023-02-15T08:48:25;19.43;;;12.37;;
57401;SDS011;43226;51.110;6.998;2023-02-15T08:50:50;14.90;;;10.63;;
57401;SDS011;43226;51.110;6.998;2023-02-15T08:53:16;18.07;;;12.00;;
57401;SDS011;43226;51.110;6.998;2023-02-15T08:55:45;15.57;;;10.70;;
57401;SDS011;43226;51.110;6.998;2023-02-15T08:58:10;16.17;;;10.97;;
57401;SDS011;43226;51.110;6.998;2023-02-15T09:00:35;18.10;;;12.10;;
57401;SDS011;43226;51.110;6.998;2023-02-15T09:03:00;17.23;;;11.90;;
57401;SDS011;43226;51.110;6.998;2023-02-15T09:05:25;14.40;;;10.43;;
57401;SDS011;43226;51.110;6.998;2023-02-15T09:07:51;15.47;;;9.53;;
57401;SDS011;43226;51.110;6.998;2023-02-15T09:10:16;15.17;;;10.60;;
57401;SDS011;43226;51.110;6.998;2023-02-15T09:12:41;14.67;;;10.37;;
57401;SDS011;43226;51.110;6.998;2023-02-15T09:15:06;15.90;;;10.50;;
57401;SDS011;43226;51.110;6.998;2023-02-15T09:17:32;14.57;;;10.77;;
57401;SDS011;43226;51.110;6.998;2023-02-15T09:19:57;14.37;;;8.77;;
57401;SDS011;43226;51.110;6.998;2023-02-15T09:22:22;15.50;;;10.70;;
57401;SDS011;43226;51.110;6.998;2023-02-15T09:24:47;16.20;;;10.77;;
57401;SDS011;43226;51.110;6.998;2023-02-15T09:27:12;15.10;;;8.63;;
57401;SDS011;43226;51.110;6.998;2023-02-15T09:29:37;18.07;;;9.13;;
57401;SDS011;43226;51.110;6.998;2023-02-15T09:32:03;16.83;;;9.50;;
57401;SDS011;43226;51.110;6.998;2023-02-15T09:34:28;21.07;;;9.60;;
57401;SDS011;43226;51.110;6.998;2023-02-15T09:36:53;15.10;;;9.03;;
57401;SDS011;43226;51.110;6.998;2023-02-15T09:39:19;19.07;;;10.97;;
57401;SDS011;43226;51.110;6.998;2023-02-15T09:44:32;14.63;;;9.43;;
57401;SDS011;43226;51.110;6.998;2023-02-15T09:57:27;16.40;;;10.07;;
57401;SDS011;43226;51.110;6.998;2023-02-15T10:05:12;18.33;;;10.37;;
57401;SDS011;43226;51.110;6.998;2023-02-15T10:15:20;14.67;;;9.57;;
57401;SDS011;43226;51.110;6.998;2023-02-15T10:20:45;16.17;;;8.60;;
57401;SDS011;43226;51.110;6.998;2023-02-15T10:28:49;15.67;;;11.10;;
57401;SDS011;43226;51.110;6.998;2023-02-15T10:33:41;14.32;;;9.63;;
57401;SDS011;43226;51.110;6.998;2023-02-15T10:41:29;12.80;;;9.03;;
57401;SDS011;43226;51.110;6.998;2023-02-15T10:54:36;15.00;;;9.27;;
57401;SDS011;43226;51.110;6.998;2023-02-15T11:00:09;18.13;;;10.37;;
57401;SDS011;43226;51.110;6.998;2023-02-15T11:02:23;12.50;;;8.33;;
57401;SDS011;43226;51.110;6.998;2023-02-15T11:07:22;16.03;;;8.80;;
57401;SDS011;43226;51.110;6.998;2023-02-15T11:09:53;12.57;;;8.90;;
57401;SDS011;43226;51.110;6.998;2023-02-15T11:12:22;16.03;;;9.47;;
57401;SDS011;43226;51.110;6.998;2023-02-15T11:14:57;15.30;;;9.83;;
57401;SDS011;43226;51.110;6.998;2023-02-15T11:17:28;15.10;;;9.23;;
57401;SDS011;43226;51.110;6.998;2023-02-15T11:20:38;16.90;;;9.70;;
57401;SDS011;43226;51.110;6.998;2023-02-15T11:22:45;17.07;;;9.57;;
57401;SDS011;43226;51.110;6.998;2023-02-15T11:25:33;13.70;;;9.03;;
57401;SDS011;43226;51.110;6.998;2023-02-15T11:27:57;15.50;;;9.60;;
57401;SDS011;43226;51.110;6.998;2023-02-15T11:30:25;13.10;;;8.80;;
57401;SDS011;43226;51.110;6.998;2023-02-15T11:32:56;12.67;;;8.80;;
57401;SDS011;43226;51.110;6.998;2023-02-15T11:35:24;20.20;;;9.57;;
57401;SDS011;43226;51.110;6.998;2023-02-15T11:37:53;14.77;;;9.37;;
57401;SDS011;43226;51.110;6.998;2023-02-15T11:40:24;13.97;;;8.30;;
57401;SDS011;43226;51.110;6.998;2023-02-15T11:42:51;13.63;;;9.03;;
57401;SDS011;43226;51.110;6.998;2023-02-15T11:45:19;17.40;;;9.40;;
57401;SDS011;43226;51.110;6.998;2023-02-15T11:47:46;15.70;;;9.60;;
57401;SDS011;43226;51.110;6.998;2023-02-15T11:50:15;16.40;;;9.50;;
57401;SDS011;43226;51.110;6.998;2023-02-15T11:52:41;16.07;;;9.77;;
57401;SDS011;43226;51.110;6.998;2023-02-15T11:55:11;14.30;;;10.07;;
57401;SDS011;43226;51.110;6.998;2023-02-15T11:57:38;15.60;;;9.33;;
57401;SDS011;43226;51.110;6.998;2023-02-15T12:02:50;13.77;;;9.47;;
57401;SDS011;43226;51.110;6.998;2023-02-15T12:05:17;14.53;;;9.60;;
57401;SDS011;43226;51.110;6.998;2023-02-15T12:07:45;14.60;;;8.20;;
57401;SDS011;43226;51.110;6.998;2023-02-15T12:10:19;18.70;;;9.80;;
57401;SDS011;43226;51.110;6.998;2023-02-15T12:12:46;14.00;;;9.60;;
57401;SDS011;43226;51.110;6.998;2023-02-15T12:15:12;15.87;;;9.27;;
57401;SDS011;43226;51.110;6.998;2023-02-15T12:17:48;16.47;;;10.60;;
57401;SDS011;43226;51.110;6.998;2023-02-15T12:22:39;18.53;;;8.90;;
57401;SDS011;43226;51.110;6.998;2023-02-15T12:27:48;16.03;;;10.30;;
57401;SDS011;43226;51.110;6.998;2023-02-15T12:32:52;15.90;;;9.30;;
57401;SDS011;43226;51.110;6.998;2023-02-15T12:35:26;15.90;;;9.67;;
57401;SDS011;43226;51.110;6.998;2023-02-15T12:40:25;18.07;;;10.43;;
57401;SDS011;43226;51.110;6.998;2023-02-15T12:42:52;17.83;;;10.10;;
57401;SDS011;43226;51.110;6.998;2023-02-15T12:47:45;13.30;;;8.93;;
57401;SDS011;43226;51.110;6.998;2023-02-15T12:50:29;14.70;;;10.13;;
57401;SDS011;43226;51.110;6.998;2023-02-15T12:53:08;11.90;;;8.33;;
57401;SDS011;43226;51.110;6.998;2023-02-15T12:55:33;15.27;;;9.33;;
57401;SDS011;43226;51.110;6.998;2023-02-15T12:58:32;13.10;;;8.70;;
57401;SDS011;43226;51.110;6.998;2023-02-15T13:01:04;15.00;;;9.77;;
57401;SDS011;43226;51.110;6.998;2023-02-15T13:03:36;13.50;;;8.47;;
57401;SDS011;43226;51.110;6.998;2023-02-15T13:06:02;13.93;;;8.50;;
57401;SDS011;43226;51.110;6.998;2023-02-15T13:08:33;19.93;;;9.80;;
57401;SDS011;43226;51.110;6.998;2023-02-15T13:11:08;14.20;;;9.00;;
57401;SDS011;43226;51.110;6.998;2023-02-15T13:13:36;14.97;;;8.80;;
57401;SDS011;43226;51.110;6.998;2023-02-15T13:16:10;14.33;;;8.77;;
57401;SDS011;43226;51.110;6.998;2023-02-15T13:18:44;13.47;;;8.60;;
57401;SDS011;43226;51.110;6.998;2023-02-15T13:23:35;14.97;;;9.40;;
57401;SDS011;43226;51.110;6.998;2023-02-15T13:26:03;14.93;;;8.73;;
57401;SDS011;43226;51.110;6.998;2023-02-15T13:28:36;14.70;;;10.27;;
57401;SDS011;43226;51.110;6.998;2023-02-15T13:31:03;13.00;;;8.73;;
57401;SDS011;43226;51.110;6.998;2023-02-15T13:38:37;13.97;;;8.83;;
57401;SDS011;43226;51.110;6.998;2023-02-15T13:41:07;14.17;;;9.37;;
57401;SDS011;43226;51.110;6.998;2023-02-15T13:43:57;17.60;;;9.90;;
57401;SDS011;43226;51.110;6.998;2023-02-15T13:46:35;12.50;;;8.37;;
57401;SDS011;43226;51.110;6.998;2023-02-15T13:51:40;18.50;;;10.17;;
57401;SDS011;43226;51.110;6.998;2023-02-15T13:56:58;16.43;;;8.40;;
57401;SDS011;43226;51.110;6.998;2023-02-15T14:05:05;16.47;;;10.07;;
57401;SDS011;43226;51.110;6.998;2023-02-15T14:20:20;18.40;;;10.30;;
57401;SDS011;43226;51.110;6.998;2023-02-15T14:22:49;15.90;;;9.50;;
57401;SDS011;43226;51.110;6.998;2023-02-15T14:25:33;20.23;;;10.03;;
57401;SDS011;43226;51.110;6.998;2023-02-15T14:30:30;21.03;;;9.43;;
57401;SDS011;43226;51.110;6.998;2023-02-15T14:33:06;17.53;;;8.87;;
57401;SDS011;43226;51.110;6.998;2023-02-15T14:35:32;21.47;;;9.67;;
57401;SDS011;43226;51.110;6.998;2023-02-15T14:38:14;19.47;;;10.87;;
57401;SDS011;43226;51.110;6.998;2023-02-15T14:40:48;18.93;;;10.37;;
57401;SDS011;43226;51.110;6.998;2023-02-15T14:46:07;17.53;;;9.70;;
57401;SDS011;43226;51.110;6.998;2023-02-15T14:48:42;18.13;;;9.00;;
57401;SDS011;43226;51.110;6.998;2023-02-15T14:51:09;17.63;;;10.30;;
57401;SDS011;43226;51.110;6.998;2023-02-15T14:53:35;18.10;;;11.20;;
57401;SDS011;43226;51.110;6.998;2023-02-15T14:56:17;15.73;;;8.83;;
57401;SDS011;43226;51.110;6.998;2023-02-15T15:01:17;19.57;;;10.40;;
57401;SDS011;43226;51.110;6.998;2023-02-15T15:03:50;23.83;;;10.40;;
57401;SDS011;43226;51.110;6.998;2023-02-15T15:06:28;18.20;;;8.80;;
57401;SDS011;43226;51.110;6.998;2023-02-15T15:08:55;21.20;;;9.87;;
57401;SDS011;43226;51.110;6.998;2023-02-15T15:13:56;17.97;;;10.17;;
57401;SDS011;43226;51.110;6.998;2023-02-15T15:16:29;17.43;;;8.97;;
57401;SDS011;43226;51.110;6.998;2023-02-15T15:18:54;21.30;;;11.43;;
57401;SDS011;43226;51.110;6.998;2023-02-15T15:24:05;15.90;;;8.20;;
57401;SDS011;43226;51.110;6.998;2023-02-15T15:26:31;22.10;;;9.93;;
57401;SDS011;43226;51.110;6.998;2023-02-15T15:28:59;17.17;;;10.20;;
57401;SDS011;43226;51.110;6.998;2023-02-15T15:39:45;16.00;;;9.40;;
57401;SDS011;43226;51.110;6.998;2023-02-15T15:50:17;21.23;;;9.63;;
57401;SDS011;43226;51.110;6.998;2023-02-15T15:52:44;19.47;;;10.60;;
57401;SDS011;43226;51.110;6.998;2023-02-15T15:55:18;21.00;;;11.70;;
57401;SDS011;43226;51.110;6.998;2023-02-15T15:57:45;17.40;;;9.63;;
57401;SDS011;43226;51.110;6.998;2023-02-15T16:02:55;19.70;;;10.83;;
57401;SDS011;43226;51.110;6.998;2023-02-15T16:05:21;20.03;;;10.87;;
57401;SDS011;43226;51.110;6.998;2023-02-15T16:07:46;22.70;;;11.27;;
57401;SDS011;43226;51.110;6.998;2023-02-15T16:10:28;20.50;;;10.80;;
57401;SDS011;43226;51.110;6.998;2023-02-15T16:12:54;19.30;;;12.07;;
57401;SDS011;43226;51.110;6.998;2023-02-15T16:15:21;22.67;;;10.60;;
57401;SDS011;43226;51.110;6.998;2023-02-15T16:17:49;16.13;;;8.80;;
57401;SDS011;43226;51.110;6.998;2023-02-15T16:20:20;17.90;;;10.73;;
57401;SDS011;43226;51.110;6.998;2023-02-15T16:22:46;19.03;;;10.17;;
57401;SDS011;43226;51.110;6.998;2023-02-15T16:28:11;19.63;;;10.43;;
57401;SDS011;43226;51.110;6.998;2023-02-15T16:30:37;20.30;;;10.57;;
57401;SDS011;43226;51.110;6.998;2023-02-15T16:33:11;16.63;;;9.97;;
57401;SDS011;43226;51.110;6.998;2023-02-15T16:35:38;19.80;;;10.30;;
57401;SDS011;43226;51.110;6.998;2023-02-15T16:38:03;16.87;;;10.93;;
57401;SDS011;43226;51.110;6.998;2023-02-15T16:42:55;21.53;;;12.30;;
57401;SDS011;43226;51.110;6.998;2023-02-15T16:45:22;19.63;;;11.60;;
57401;SDS011;43226;51.110;6.998;2023-02-15T16:47:50;24.77;;;12.10;;
57401;SDS011;43226;51.110;6.998;2023-02-15T16:50:19;24.33;;;11.13;;
57401;SDS011;43226;51.110;6.998;2023-02-15T16:52:44;26.40;;;13.17;;
57401;SDS011;43226;51.110;6.998;2023-02-15T16:55:20;20.50;;;12.40;;
57401;SDS011;43226;51.110;6.998;2023-02-15T16:57:45;19.73;;;11.60;;
57401;SDS011;43226;51.110;6.998;2023-02-15T17:00:21;18.57;;;11.13;;
57401;SDS011;43226;51.110;6.998;2023-02-15T17:02:55;21.40;;;11.20;;
57401;SDS011;43226;51.110;6.998;2023-02-15T17:05:22;27.37;;;12.10;;
57401;SDS011;43226;51.110;6.998;2023-02-15T17:08:12;21.73;;;12.13;;
57401;SDS011;43226;51.110;6.998;2023-02-15T17:10:38;26.57;;;12.70;;
57401;SDS011;43226;51.110;6.998;2023-02-15T17:13:10;23.87;;;10.67;;
57401;SDS011;43226;51.110;6.998;2023-02-15T17:15:36;23.30;;;11.93;;
57401;SDS011;43226;51.110;6.998;2023-02-15T17:18:05;25.93;;;12.30;;
57401;SDS011;43226;51.110;6.998;2023-02-15T17:20:33;21.03;;;11.20;;
57401;SDS011;43226;51.110;6.998;2023-02-15T17:23:00;26.37;;;14.17;;